Aviation Digital Data Service (ADDS)

Output produced by METARs form (1430 UTC 21 August 2019)
found at http://www.aviationweather.gov/metar/data/
 
METAR text: BIRK 211400Z 08011KT 050V110 9999 FEW040 SCT063 BKN079 16/04 Q1003
Conditions at: BIRK (REYKJAVIK (NOTAM, IS) observed 1400 UTC 21 August 2019
Temperature: 16.0°C (61°F)
Dewpoint: 4.0°C (39°F) [RH = 45%]
Pressure (altimeter): 29.62 inches Hg (1003.0 mb)
Winds: from the E (80 degrees) at 13 MPH (11 knots; 5.7 m/s)
Visibility: 6 or more miles (10+ km)
Ceiling: 7900 feet AGL
Clouds: few clouds at 4000 feet AGL
scattered clouds at 6300 feet AGL
broken clouds at 7900 feet AGL
Weather: no significant weather observed at this time

METAR text: BIRK 211300Z 08012KT 9999 FEW045 BKN077 15/04 Q1003
Conditions at: BIRK (REYKJAVIK (NOTAM, IS) observed 1300 UTC 21 August 2019
Temperature: 15.0°C (59°F)
Dewpoint: 4.0°C (39°F) [RH = 48%]
Pressure (altimeter): 29.62 inches Hg (1003.0 mb)
Winds: from the E (80 degrees) at 14 MPH (12 knots; 6.2 m/s)
Visibility: 6 or more miles (10+ km)
Ceiling: 7700 feet AGL
Clouds: few clouds at 4500 feet AGL
broken clouds at 7700 feet AGL
Weather: no significant weather observed at this time

METAR text: BIRK 211200Z 08010KT 9999 -RA FEW028 BKN075 13/06 Q1003
Conditions at: BIRK (REYKJAVIK (NOTAM, IS) observed 1200 UTC 21 August 2019
Temperature: 13.0°C (55°F)
Dewpoint: 6.0°C (43°F) [RH = 62%]
Pressure (altimeter): 29.62 inches Hg (1003.0 mb)
Winds: from the E (80 degrees) at 12 MPH (10 knots; 5.1 m/s)
Visibility: 6 or more miles (10+ km)
Ceiling: 7500 feet AGL
Clouds: few clouds at 2800 feet AGL
broken clouds at 7500 feet AGL
Weather: -RA  (light rain)

METAR text: BIRK 211100Z 07016KT 9999 -RA FEW026 BKN090 BKN110 14/06 Q1003
Conditions at: BIRK (REYKJAVIK (NOTAM, IS) observed 1100 UTC 21 August 2019
Temperature: 14.0°C (57°F)
Dewpoint: 6.0°C (43°F) [RH = 58%]
Pressure (altimeter): 29.62 inches Hg (1003.0 mb)
Winds: from the ENE (70 degrees) at 18 MPH (16 knots; 8.2 m/s)
Visibility: 6 or more miles (10+ km)
Ceiling: 9000 feet AGL
Clouds: few clouds at 2600 feet AGL
broken clouds at 9000 feet AGL
broken clouds at 11000 feet AGL
Weather: -RA  (light rain)

METAR text: BIRK 211000Z 08022KT 9999 FEW035 BKN080 BKN100 14/04 Q1003
Conditions at: BIRK (REYKJAVIK (NOTAM, IS) observed 1000 UTC 21 August 2019
Temperature: 14.0°C (57°F)
Dewpoint: 4.0°C (39°F) [RH = 51%]
Pressure (altimeter): 29.62 inches Hg (1003.0 mb)
Winds: from the E (80 degrees) at 25 MPH (22 knots; 11.3 m/s)
Visibility: 6 or more miles (10+ km)
Ceiling: 8000 feet AGL
Clouds: few clouds at 3500 feet AGL
broken clouds at 8000 feet AGL
broken clouds at 10000 feet AGL
Weather: no significant weather observed at this time

METAR text: BIRK 210900Z 08016KT CAVOK 14/04 Q1003
Conditions at: BIRK (REYKJAVIK (NOTAM, IS) observed 0900 UTC 21 August 2019
Temperature: 14.0°C (57°F)
Dewpoint: 4.0°C (39°F) [RH = 51%]
Pressure (altimeter): 29.62 inches Hg (1003.0 mb)
Winds: from the E (80 degrees) at 18 MPH (16 knots; 8.2 m/s)
Visibility: 6 or more miles (10+ km)
Ceiling: ceiling and visibility are OK
Clouds: unknown
Weather: no significant weather observed at this time

METAR text: BIRK 210800Z 07018KT CAVOK 13/04 Q1003
Conditions at: BIRK (REYKJAVIK (NOTAM, IS) observed 0800 UTC 21 August 2019
Temperature: 13.0°C (55°F)
Dewpoint: 4.0°C (39°F) [RH = 54%]
Pressure (altimeter): 29.62 inches Hg (1003.0 mb)
Winds: from the ENE (70 degrees) at 21 MPH (18 knots; 9.3 m/s)
Visibility: 6 or more miles (10+ km)
Ceiling: ceiling and visibility are OK
Clouds: unknown
Weather: no significant weather observed at this time

METAR text: BIRK 210700Z 08017KT CAVOK 13/04 Q1003
Conditions at: BIRK (REYKJAVIK (NOTAM, IS) observed 0700 UTC 21 August 2019
Temperature: 13.0°C (55°F)
Dewpoint: 4.0°C (39°F) [RH = 54%]
Pressure (altimeter): 29.62 inches Hg (1003.0 mb)
Winds: from the E (80 degrees) at 20 MPH (17 knots; 8.7 m/s)
Visibility: 6 or more miles (10+ km)
Ceiling: ceiling and visibility are OK
Clouds: unknown
Weather: no significant weather observed at this time

METAR text: BIRK 210600Z 08016G26KT 9999 FEW034 BKN077 OVC120 12/04 Q1003
Conditions at: BIRK (REYKJAVIK (NOTAM, IS) observed 0600 UTC 21 August 2019
Temperature: 12.0°C (54°F)
Dewpoint: 4.0°C (39°F) [RH = 58%]
Pressure (altimeter): 29.62 inches Hg (1003.0 mb)
Winds: from the E (80 degrees) at 18 MPH (16 knots; 8.2 m/s)
gusting to 30 MPH (26 knots; 13.4 m/s)
Visibility: 6 or more miles (10+ km)
Ceiling: 7700 feet AGL
Clouds: few clouds at 3400 feet AGL
broken clouds at 7700 feet AGL
overcast cloud deck at 12000 feet AGL
Weather: no significant weather observed at this time

METAR text: BIRK 210500Z 08015KT 9999 VCSH FEW040 OVC094 12/04 Q1003
Conditions at: BIRK (REYKJAVIK (NOTAM, IS) observed 0500 UTC 21 August 2019
Temperature: 12.0°C (54°F)
Dewpoint: 4.0°C (39°F) [RH = 58%]
Pressure (altimeter): 29.62 inches Hg (1003.0 mb)
Winds: from the E (80 degrees) at 17 MPH (15 knots; 7.7 m/s)
Visibility: 6 or more miles (10+ km)
Ceiling: 9400 feet AGL
Clouds: few clouds at 4000 feet AGL
overcast cloud deck at 9400 feet AGL
Weather: VCSH  (showers in vicinity)

METAR text: BIRK 210400Z 08018KT 9999 -RA FEW029 BKN078 OVC100 12/04 Q1003
Conditions at: BIRK (REYKJAVIK (NOTAM, IS) observed 0400 UTC 21 August 2019
Temperature: 12.0°C (54°F)
Dewpoint: 4.0°C (39°F) [RH = 58%]
Pressure (altimeter): 29.62 inches Hg (1003.0 mb)
Winds: from the E (80 degrees) at 21 MPH (18 knots; 9.3 m/s)
Visibility: 6 or more miles (10+ km)
Ceiling: 7800 feet AGL
Clouds: few clouds at 2900 feet AGL
broken clouds at 7800 feet AGL
overcast cloud deck at 10000 feet AGL
Weather: -RA  (light rain)

METAR text: BIRK 210300Z 08017KT 9999 FEW034 SCT076 OVC094 12/03 Q1004
Conditions at: BIRK (REYKJAVIK (NOTAM, IS) observed 0300 UTC 21 August 2019
Temperature: 12.0°C (54°F)
Dewpoint: 3.0°C (37°F) [RH = 54%]
Pressure (altimeter): 29.65 inches Hg (1004.0 mb)
Winds: from the E (80 degrees) at 20 MPH (17 knots; 8.7 m/s)
Visibility: 6 or more miles (10+ km)
Ceiling: 9400 feet AGL
Clouds: few clouds at 3400 feet AGL
scattered clouds at 7600 feet AGL
overcast cloud deck at 9400 feet AGL
Weather: no significant weather observed at this time

METAR text: BIRK 210200Z 08012KT 9999 FEW037 BKN063 12/03 Q1004
Conditions at: BIRK (REYKJAVIK (NOTAM, IS) observed 0200 UTC 21 August 2019
Temperature: 12.0°C (54°F)
Dewpoint: 3.0°C (37°F) [RH = 54%]
Pressure (altimeter): 29.65 inches Hg (1004.0 mb)
Winds: from the E (80 degrees) at 14 MPH (12 knots; 6.2 m/s)
Visibility: 6 or more miles (10+ km)
Ceiling: 6300 feet AGL
Clouds: few clouds at 3700 feet AGL
broken clouds at 6300 feet AGL
Weather: no significant weather observed at this time

METAR text: BIRK 210100Z 07011KT 9999 FEW037 SCT064 BKN073 12/04 Q1005
Conditions at: BIRK (REYKJAVIK (NOTAM, IS) observed 0100 UTC 21 August 2019
Temperature: 12.0°C (54°F)
Dewpoint: 4.0°C (39°F) [RH = 58%]
Pressure (altimeter): 29.68 inches Hg (1005.0 mb)
Winds: from the ENE (70 degrees) at 13 MPH (11 knots; 5.7 m/s)
Visibility: 6 or more miles (10+ km)
Ceiling: 7300 feet AGL
Clouds: few clouds at 3700 feet AGL
scattered clouds at 6400 feet AGL
broken clouds at 7300 feet AGL
Weather: no significant weather observed at this time

METAR text: BIRK 210000Z 09011KT CAVOK 11/04 Q1005
Conditions at: BIRK (REYKJAVIK (NOTAM, IS) observed 0000 UTC 21 August 2019
Temperature: 11.0°C (52°F)
Dewpoint: 4.0°C (39°F) [RH = 62%]
Pressure (altimeter): 29.68 inches Hg (1005.0 mb)
Winds: from the E (90 degrees) at 13 MPH (11 knots; 5.7 m/s)
Visibility: 6 or more miles (10+ km)
Ceiling: ceiling and visibility are OK
Clouds: unknown
Weather: no significant weather observed at this time

METAR text: BIRK 202300Z 09010KT CAVOK 11/04 Q1006
Conditions at: BIRK (REYKJAVIK (NOTAM, IS) observed 2300 UTC 20 August 2019
Temperature: 11.0°C (52°F)
Dewpoint: 4.0°C (39°F) [RH = 62%]
Pressure (altimeter): 29.70 inches Hg (1006.0 mb)
Winds: from the E (90 degrees) at 12 MPH (10 knots; 5.1 m/s)
Visibility: 6 or more miles (10+ km)
Ceiling: ceiling and visibility are OK
Clouds: unknown
Weather: no significant weather observed at this time

METAR text: BIRK 202200Z 11010KT CAVOK 12/06 Q1006
Conditions at: BIRK (REYKJAVIK (NOTAM, IS) observed 2200 UTC 20 August 2019
Temperature: 12.0°C (54°F)
Dewpoint: 6.0°C (43°F) [RH = 67%]
Pressure (altimeter): 29.70 inches Hg (1006.0 mb)
Winds: from the ESE (110 degrees) at 12 MPH (10 knots; 5.1 m/s)
Visibility: 6 or more miles (10+ km)
Ceiling: ceiling and visibility are OK
Clouds: unknown
Weather: no significant weather observed at this time

METAR text: BIRK 202100Z 11009KT 9999 VCSH FEW025 SCT093 BKN110 12/05 Q1006
Conditions at: BIRK (REYKJAVIK (NOTAM, IS) observed 2100 UTC 20 August 2019
Temperature: 12.0°C (54°F)
Dewpoint: 5.0°C (41°F) [RH = 62%]
Pressure (altimeter): 29.70 inches Hg (1006.0 mb)
Winds: from the ESE (110 degrees) at 10 MPH (9 knots; 4.6 m/s)
Visibility: 6 or more miles (10+ km)
Ceiling: 11000 feet AGL
Clouds: few clouds at 2500 feet AGL
scattered clouds at 9300 feet AGL
broken clouds at 11000 feet AGL
Weather: VCSH  (showers in vicinity)

METAR text: BIRK 202000Z 12011KT 100V160 8000 VCSH FEW017 SCT028 BKN088 13/05 Q1006
Conditions at: BIRK (REYKJAVIK (NOTAM, IS) observed 2000 UTC 20 August 2019
Temperature: 13.0°C (55°F)
Dewpoint: 5.0°C (41°F) [RH = 58%]
Pressure (altimeter): 29.70 inches Hg (1006.0 mb)
Winds: from the ESE (120 degrees) at 13 MPH (11 knots; 5.7 m/s)
Visibility: 5 miles ( 8 km)
Ceiling: 8800 feet AGL
Clouds: few clouds at 1700 feet AGL
scattered clouds at 2800 feet AGL
broken clouds at 8800 feet AGL
Weather: VCSH  (showers in vicinity)

METAR text: BIRK 201900Z 12017KT 9999 W8000 VCSH FEW015 BKN030 BKN120 13/05 Q1006
Conditions at: BIRK (REYKJAVIK (NOTAM, IS) observed 1900 UTC 20 August 2019
Temperature: 13.0°C (55°F)
Dewpoint: 5.0°C (41°F) [RH = 58%]
Pressure (altimeter): 29.70 inches Hg (1006.0 mb)
Winds: from the ESE (120 degrees) at 20 MPH (17 knots; 8.7 m/s)
Visibility: 6 or more miles (10+ km)
Ceiling: 3000 feet AGL
Clouds: few clouds at 1500 feet AGL
broken clouds at 3000 feet AGL
broken clouds at 12000 feet AGL
Weather: VCSH  (showers in vicinity)

METAR text: BIRK 201800Z 13015KT 9999 W4400 VCSH FEW017 SCT034 BKN042 12/06 Q1007
Conditions at: BIRK (REYKJAVIK (NOTAM, IS) observed 1800 UTC 20 August 2019
Temperature: 12.0°C (54°F)
Dewpoint: 6.0°C (43°F) [RH = 67%]
Pressure (altimeter): 29.73 inches Hg (1007.0 mb)
Winds: from the SE (130 degrees) at 17 MPH (15 knots; 7.7 m/s)
Visibility: 6 or more miles (10+ km)
Ceiling: 4200 feet AGL
Clouds: few clouds at 1700 feet AGL
scattered clouds at 3400 feet AGL
broken clouds at 4200 feet AGL
Weather: VCSH  (showers in vicinity)

METAR text: BIRK 201700Z 11012KT 9999 W9000 VCSH FEW028 BKN038 13/06 Q1007
Conditions at: BIRK (REYKJAVIK (NOTAM, IS) observed 1700 UTC 20 August 2019
Temperature: 13.0°C (55°F)
Dewpoint: 6.0°C (43°F) [RH = 62%]
Pressure (altimeter): 29.73 inches Hg (1007.0 mb)
Winds: from the ESE (110 degrees) at 14 MPH (12 knots; 6.2 m/s)
Visibility: 6 or more miles (10+ km)
Ceiling: 3800 feet AGL
Clouds: few clouds at 2800 feet AGL
broken clouds at 3800 feet AGL
Weather: VCSH  (showers in vicinity)

METAR text: BIRK 201600Z 12014KT 9999 W6000 -RA FEW020 SCT028 BKN034 12/07 Q1007
Conditions at: BIRK (REYKJAVIK (NOTAM, IS) observed 1600 UTC 20 August 2019
Temperature: 12.0°C (54°F)
Dewpoint: 7.0°C (45°F) [RH = 71%]
Pressure (altimeter): 29.73 inches Hg (1007.0 mb)
Winds: from the ESE (120 degrees) at 16 MPH (14 knots; 7.2 m/s)
Visibility: 6 or more miles (10+ km)
Ceiling: 3400 feet AGL
Clouds: few clouds at 2000 feet AGL
scattered clouds at 2800 feet AGL
broken clouds at 3400 feet AGL
Weather: -RA  (light rain)

METAR text: BIRK 201500Z 11013KT 9999 -RA FEW032 BKN043 13/05 Q1007
Conditions at: BIRK (REYKJAVIK (NOTAM, IS) observed 1500 UTC 20 August 2019
Temperature: 13.0°C (55°F)
Dewpoint: 5.0°C (41°F) [RH = 58%]
Pressure (altimeter): 29.73 inches Hg (1007.0 mb)
Winds: from the ESE (110 degrees) at 15 MPH (13 knots; 6.7 m/s)
Visibility: 6 or more miles (10+ km)
Ceiling: 4300 feet AGL
Clouds: few clouds at 3200 feet AGL
broken clouds at 4300 feet AGL
Weather: -RA  (light rain)

METAR text: BIRK 201400Z 11013KT 9999 SCT032 BKN052 13/04 Q1008
Conditions at: BIRK (REYKJAVIK (NOTAM, IS) observed 1400 UTC 20 August 2019
Temperature: 13.0°C (55°F)
Dewpoint: 4.0°C (39°F) [RH = 54%]
Pressure (altimeter): 29.76 inches Hg (1008.0 mb)
Winds: from the ESE (110 degrees) at 15 MPH (13 knots; 6.7 m/s)
Visibility: 6 or more miles (10+ km)
Ceiling: 5200 feet AGL
Clouds: scattered clouds at 3200 feet AGL
broken clouds at 5200 feet AGL
Weather: no significant weather observed at this time

METAR text: BIRK 201300Z 12012KT 9999 FEW031 BKN041 12/04 Q1008
Conditions at: BIRK (REYKJAVIK (NOTAM, IS) observed 1300 UTC 20 August 2019
Temperature: 12.0°C (54°F)
Dewpoint: 4.0°C (39°F) [RH = 58%]
Pressure (altimeter): 29.76 inches Hg (1008.0 mb)
Winds: from the ESE (120 degrees) at 14 MPH (12 knots; 6.2 m/s)
Visibility: 6 or more miles (10+ km)
Ceiling: 4100 feet AGL
Clouds: few clouds at 3100 feet AGL
broken clouds at 4100 feet AGL
Weather: no significant weather observed at this time

METAR text: BIRK 201200Z 10012KT 9999 SCT028 BKN077 12/04 Q1008
Conditions at: BIRK (REYKJAVIK (NOTAM, IS) observed 1200 UTC 20 August 2019
Temperature: 12.0°C (54°F)
Dewpoint: 4.0°C (39°F) [RH = 58%]
Pressure (altimeter): 29.76 inches Hg (1008.0 mb)
Winds: from the E (100 degrees) at 14 MPH (12 knots; 6.2 m/s)
Visibility: 6 or more miles (10+ km)
Ceiling: 7700 feet AGL
Clouds: scattered clouds at 2800 feet AGL
broken clouds at 7700 feet AGL
Weather: no significant weather observed at this time

METAR text: BIRK 201100Z 11014KT 9999 FEW045 SCT065 BKN110 11/03 Q1008
Conditions at: BIRK (REYKJAVIK (NOTAM, IS) observed 1100 UTC 20 August 2019
Temperature: 11.0°C (52°F)
Dewpoint: 3.0°C (37°F) [RH = 58%]
Pressure (altimeter): 29.76 inches Hg (1008.0 mb)
Winds: from the ESE (110 degrees) at 16 MPH (14 knots; 7.2 m/s)
Visibility: 6 or more miles (10+ km)
Ceiling: 11000 feet AGL
Clouds: few clouds at 4500 feet AGL
scattered clouds at 6500 feet AGL
broken clouds at 11000 feet AGL
Weather: no significant weather observed at this time

METAR text: BIRK 201000Z 09009KT 9999 SCT040 BKN070 10/01 Q1008
Conditions at: BIRK (REYKJAVIK (NOTAM, IS) observed 1000 UTC 20 August 2019
Temperature: 10.0°C (50°F)
Dewpoint: 1.0°C (34°F) [RH = 53%]
Pressure (altimeter): 29.76 inches Hg (1008.0 mb)
Winds: from the E (90 degrees) at 10 MPH (9 knots; 4.6 m/s)
Visibility: 6 or more miles (10+ km)
Ceiling: 7000 feet AGL
Clouds: scattered clouds at 4000 feet AGL
broken clouds at 7000 feet AGL
Weather: no significant weather observed at this time

METAR text: BIRK 200900Z 09011KT CAVOK 10/01 Q1008
Conditions at: BIRK (REYKJAVIK (NOTAM, IS) observed 0900 UTC 20 August 2019
Temperature: 10.0°C (50°F)
Dewpoint: 1.0°C (34°F) [RH = 53%]
Pressure (altimeter): 29.76 inches Hg (1008.0 mb)
Winds: from the E (90 degrees) at 13 MPH (11 knots; 5.7 m/s)
Visibility: 6 or more miles (10+ km)
Ceiling: ceiling and visibility are OK
Clouds: unknown
Weather: no significant weather observed at this time

METAR text: BIRK 200800Z 09010KT CAVOK 09/01 Q1008
Conditions at: BIRK (REYKJAVIK (NOTAM, IS) observed 0800 UTC 20 August 2019
Temperature: 9.0°C (48°F)
Dewpoint: 1.0°C (34°F) [RH = 57%]
Pressure (altimeter): 29.76 inches Hg (1008.0 mb)
Winds: from the E (90 degrees) at 12 MPH (10 knots; 5.1 m/s)
Visibility: 6 or more miles (10+ km)
Ceiling: ceiling and visibility are OK
Clouds: unknown
Weather: no significant weather observed at this time

METAR text: BIRK 200700Z 09009KT 9999 FEW037 SCT072 08/01 Q1008
Conditions at: BIRK (REYKJAVIK (NOTAM, IS) observed 0700 UTC 20 August 2019
Temperature: 8.0°C (46°F)
Dewpoint: 1.0°C (34°F) [RH = 61%]
Pressure (altimeter): 29.76 inches Hg (1008.0 mb)
Winds: from the E (90 degrees) at 10 MPH (9 knots; 4.6 m/s)
Visibility: 6 or more miles (10+ km)
Ceiling: at least 12,000 feet AGL
Clouds: few clouds at 3700 feet AGL
scattered clouds at 7200 feet AGL
Weather: no significant weather observed at this time

METAR text: BIRK 200600Z 08007KT 9999 FEW038 SCT140 07/01 Q1008
Conditions at: BIRK (REYKJAVIK (NOTAM, IS) observed 0600 UTC 20 August 2019
Temperature: 7.0°C (45°F)
Dewpoint: 1.0°C (34°F) [RH = 66%]
Pressure (altimeter): 29.76 inches Hg (1008.0 mb)
Winds: from the E (80 degrees) at 8 MPH (7 knots; 3.6 m/s)
Visibility: 6 or more miles (10+ km)
Ceiling: at least 12,000 feet AGL
Clouds: few clouds at 3800 feet AGL
scattered clouds at 14000 feet AGL
Weather: no significant weather observed at this time

METAR text: BIRK 200500Z 10006KT CAVOK 07/02 Q1008
Conditions at: BIRK (REYKJAVIK (NOTAM, IS) observed 0500 UTC 20 August 2019
Temperature: 7.0°C (45°F)
Dewpoint: 2.0°C (36°F) [RH = 70%]
Pressure (altimeter): 29.76 inches Hg (1008.0 mb)
Winds: from the E (100 degrees) at 7 MPH (6 knots; 3.1 m/s)
Visibility: 6 or more miles (10+ km)
Ceiling: ceiling and visibility are OK
Clouds: unknown
Weather: no significant weather observed at this time

METAR text: BIRK 200400Z 09007KT CAVOK 08/03 Q1008
Conditions at: BIRK (REYKJAVIK (NOTAM, IS) observed 0400 UTC 20 August 2019
Temperature: 8.0°C (46°F)
Dewpoint: 3.0°C (37°F) [RH = 71%]
Pressure (altimeter): 29.76 inches Hg (1008.0 mb)
Winds: from the E (90 degrees) at 8 MPH (7 knots; 3.6 m/s)
Visibility: 6 or more miles (10+ km)
Ceiling: ceiling and visibility are OK
Clouds: unknown
Weather: no significant weather observed at this time

METAR text: BIRK 200300Z 09009KT 9999 FEW026 SCT044 09/04 Q1009
Conditions at: BIRK (REYKJAVIK (NOTAM, IS) observed 0300 UTC 20 August 2019
Temperature: 9.0°C (48°F)
Dewpoint: 4.0°C (39°F) [RH = 71%]
Pressure (altimeter): 29.79 inches Hg (1009.0 mb)
Winds: from the E (90 degrees) at 10 MPH (9 knots; 4.6 m/s)
Visibility: 6 or more miles (10+ km)
Ceiling: at least 12,000 feet AGL
Clouds: few clouds at 2600 feet AGL
scattered clouds at 4400 feet AGL
Weather: no significant weather observed at this time

Forecast for: BIRK (REYKJAVIK (NOTAM, IS)
Text: TAF BIRK 211321Z 2115/2215 09013KT 9999 FEW035 BKN055 TX15/2212Z TN08/2206Z
Forecast period: 1500 to 1800 UTC 21 August 2019
Forecast type: FROM: standard forecast or significant change
Winds: from the E (90 degrees) at 15 MPH (13 knots; 6.7 m/s)
Visibility: 6 or more miles 10+ km)
Ceiling: 5500 feet AGL
Clouds: few clouds at 3500 feet AGL
broken clouds at 5500 feet AGL
Weather: no significant weather forecast for this period
Text: BECMG 2118/2121 VRB04KT
Forecast period: 1800 UTC 21 August 2019 to 1500 UTC 22 August 2019
Forecast type: BECOMING: Conditions expected to become as follows by 2100 UTC 21 August 2019
Winds: variable direction winds at 5 MPH (4 knots; 2.1 m/s)
Visibility: 6 or more miles 10+ km)
Ceiling: 5500 feet AGL
Clouds: few clouds at 3500 feet AGL
broken clouds at 5500 feet AGL
Weather: no significant weather forecast for this period